createdAt,value
2023-03-19T00:02:18.019Z,2.65
2023-03-19T00:04:48.697Z,1.77
2023-03-19T00:07:21.670Z,1.45
2023-03-19T00:09:58.190Z,2.58
2023-03-19T00:12:28.440Z,2.40
2023-03-19T00:14:58.538Z,2.28
2023-03-19T00:17:28.881Z,2.45
2023-03-19T00:19:59.044Z,2.33
2023-03-19T00:22:31.713Z,2.70
2023-03-19T00:25:02.074Z,2.97
2023-03-19T00:27:32.115Z,2.35
2023-03-19T00:30:02.721Z,2.50
2023-03-19T00:32:33.720Z,2.22
2023-03-19T00:40:25.418Z,3.05
2023-03-19T00:42:55.976Z,2.35
2023-03-19T00:45:26.107Z,2.42
2023-03-19T00:47:56.366Z,2.53
2023-03-19T00:50:26.622Z,2.47
2023-03-19T00:52:59.368Z,3.30
2023-03-19T00:55:29.764Z,2.67
2023-03-19T00:57:59.991Z,2.83
2023-03-19T01:00:30.462Z,2.80
2023-03-19T01:03:00.500Z,3.45
2023-03-19T01:05:31.376Z,3.17
2023-03-19T01:08:05.432Z,2.95
2023-03-19T01:10:37.754Z,3.17
2023-03-19T01:13:08.202Z,3.22
2023-03-19T01:15:39.462Z,3.58
2023-03-19T01:18:10.604Z,2.92
2023-03-19T01:25:44.413Z,3.00
2023-03-19T01:28:14.683Z,3.05
2023-03-19T01:30:44.810Z,3.00
2023-03-19T01:33:15.247Z,3.10
2023-03-19T01:35:46.334Z,3.05
2023-03-19T01:38:19.895Z,2.92
2023-03-19T01:40:50.964Z,3.50
2023-03-19T01:43:22.978Z,3.05
2023-03-19T01:45:55.853Z,3.58
2023-03-19T01:48:34.048Z,3.83
2023-03-19T01:51:06.268Z,3.17
2023-03-19T01:53:40.534Z,3.25
2023-03-19T01:56:17.386Z,3.28
2023-03-19T01:58:49.597Z,3.53
2023-03-19T02:01:20.927Z,3.45
2023-03-19T02:03:54.067Z,3.47
2023-03-19T02:06:25.049Z,3.13
2023-03-19T02:08:59.360Z,3.55
2023-03-19T02:11:29.713Z,3.58
2023-03-19T02:13:59.789Z,3.83
2023-03-19T02:16:30.099Z,3.95
2023-03-19T02:19:01.552Z,3.90
2023-03-19T02:21:32.973Z,3.85
2023-03-19T02:24:17.726Z,4.50
2023-03-19T02:26:51.054Z,3.65
2023-03-19T02:29:21.801Z,3.72
2023-03-19T02:31:52.347Z,3.13
2023-03-19T02:34:41.604Z,3.70
2023-03-19T02:37:17.190Z,4.45
2023-03-19T02:42:41.791Z,3.85
2023-03-19T02:45:12.621Z,3.42
2023-03-19T02:47:42.886Z,3.92
2023-03-19T02:50:13.805Z,3.67
2023-03-19T02:52:44.199Z,4.55
2023-03-19T02:55:16.983Z,3.83
2023-03-19T02:57:50.318Z,3.63
2023-03-19T03:00:21.393Z,3.55
2023-03-19T03:05:21.652Z,3.88
2023-03-19T03:07:52.015Z,3.50
2023-03-19T03:10:22.441Z,3.78
2023-03-19T03:12:55.101Z,4.47
2023-03-19T03:15:25.457Z,3.67
2023-03-19T03:17:56.663Z,4.20
2023-03-19T03:20:27.033Z,4.32
2023-03-19T03:22:57.125Z,3.33
2023-03-19T03:25:27.351Z,4.72
2023-03-19T03:28:00.103Z,2.80
2023-03-19T03:30:30.162Z,2.10
2023-03-19T03:33:00.698Z,1.80
2023-03-19T03:35:31.046Z,1.77
2023-03-19T03:38:01.410Z,1.65
2023-03-19T03:40:31.474Z,1.58
2023-03-19T03:43:04.291Z,2.05
2023-03-19T03:45:34.368Z,1.50
2023-03-19T03:48:04.520Z,1.60
2023-03-19T03:50:34.723Z,2.42
2023-03-19T03:53:05.192Z,1.50
2023-03-19T03:55:35.988Z,1.23
2023-03-19T03:58:09.127Z,1.48
2023-03-19T04:00:39.642Z,1.60
2023-03-19T04:03:10.500Z,1.95
2023-03-19T04:05:40.747Z,2.25
2023-03-19T04:08:11.500Z,2.03
2023-03-19T04:10:43.889Z,2.50
2023-03-19T04:13:16.790Z,1.65
2023-03-19T04:15:47.922Z,2.05
2023-03-19T04:20:50.998Z,2.08
2023-03-19T04:23:21.234Z,2.15
2023-03-19T04:25:51.837Z,1.90
2023-03-19T04:28:24.748Z,2.45
2023-03-19T04:30:54.967Z,1.73
2023-03-19T04:33:25.596Z,2.13
2023-03-19T04:35:56.090Z,1.88
2023-03-19T04:38:27.928Z,2.17
2023-03-19T04:40:58.986Z,2.00
2023-03-19T04:43:31.834Z,2.63
2023-03-19T04:46:02.190Z,2.00
2023-03-19T04:48:33.422Z,2.03
2023-03-19T04:53:34.537Z,2.08
2023-03-19T04:56:04.811Z,2.47
2023-03-19T04:58:37.898Z,1.80
2023-03-19T05:01:08.420Z,1.77
2023-03-19T05:03:39.356Z,2.33
2023-03-19T05:06:09.927Z,2.20
2023-03-19T05:08:40.141Z,1.90
2023-03-19T05:11:10.383Z,1.50
2023-03-19T05:13:43.192Z,2.05
2023-03-19T05:16:14.006Z,2.33
2023-03-19T05:18:44.871Z,2.22
2023-03-19T05:21:16.027Z,2.67
2023-03-19T05:26:16.842Z,2.30
2023-03-19T05:28:49.699Z,1.60
2023-03-19T05:31:20.083Z,2.10
2023-03-19T05:33:50.186Z,2.15
2023-03-19T05:36:20.676Z,2.22
2023-03-19T05:38:50.884Z,2.10
2023-03-19T05:41:20.891Z,2.72
2023-03-19T05:43:53.962Z,2.03
2023-03-19T05:46:24.534Z,2.47
2023-03-19T05:48:54.796Z,1.92
2023-03-19T05:51:24.896Z,1.80
2023-03-19T05:53:55.143Z,1.80
2023-03-19T05:56:25.467Z,2.45
2023-03-19T05:58:58.395Z,2.25
2023-03-19T06:01:28.807Z,1.77
2023-03-19T06:03:59.239Z,1.77
2023-03-19T06:06:29.466Z,2.00
2023-03-19T06:08:59.568Z,1.70
2023-03-19T06:11:29.624Z,1.63
2023-03-19T06:14:02.401Z,1.55
2023-03-19T06:16:32.717Z,1.55
2023-03-19T06:19:02.935Z,1.95
2023-03-19T06:21:32.972Z,2.47
2023-03-19T06:24:03.374Z,2.33
2023-03-19T06:26:33.429Z,2.13
2023-03-19T06:29:06.824Z,2.20
2023-03-19T06:31:39.605Z,2.10
2023-03-19T06:34:10.099Z,1.77
2023-03-19T06:36:40.190Z,1.80
2023-03-19T06:39:10.531Z,1.65
2023-03-19T06:41:40.795Z,1.75
2023-03-19T06:44:13.499Z,2.30
2023-03-19T06:46:43.569Z,2.03
2023-03-19T06:49:14.024Z,2.25
2023-03-19T06:51:44.274Z,2.50
2023-03-19T06:54:14.400Z,2.30
2023-03-19T06:56:44.478Z,2.00
2023-03-19T06:59:17.688Z,1.75
2023-03-19T07:01:48.023Z,1.63
2023-03-19T07:04:18.625Z,2.05
2023-03-19T07:06:48.763Z,2.20
2023-03-19T07:09:18.902Z,2.17
2023-03-19T07:11:48.937Z,2.40
2023-03-19T07:14:21.598Z,1.52
2023-03-19T07:16:52.002Z,1.85
2023-03-19T07:19:23.217Z,2.15
2023-03-19T07:21:53.530Z,1.55
2023-03-19T07:24:23.720Z,1.85
2023-03-19T07:26:54.067Z,1.40
2023-03-19T07:29:27.262Z,2.08
2023-03-19T07:31:57.674Z,1.80
2023-03-19T07:34:28.073Z,1.90
2023-03-19T07:36:58.469Z,2.10
2023-03-19T07:39:28.682Z,2.28
2023-03-19T07:41:58.702Z,1.98
2023-03-19T07:44:31.528Z,1.70
2023-03-19T07:47:01.943Z,1.85
2023-03-19T07:49:32.088Z,1.48
2023-03-19T07:52:02.366Z,2.35
2023-03-19T07:54:32.519Z,1.90
2023-03-19T07:57:02.581Z,2.60
2023-03-19T07:59:35.306Z,1.85
2023-03-19T08:02:05.413Z,2.53
2023-03-19T08:04:35.932Z,2.50
2023-03-19T08:07:06.976Z,3.47
2023-03-19T08:12:14.778Z,2.05
2023-03-19T08:14:47.668Z,1.80
2023-03-19T08:17:17.746Z,2.00
2023-03-19T08:19:48.043Z,2.40
2023-03-19T08:22:18.310Z,1.58
2023-03-19T08:24:48.666Z,1.88
2023-03-19T08:27:18.742Z,2.08
2023-03-19T08:29:51.384Z,2.50
2023-03-19T08:32:21.449Z,2.63
2023-03-19T08:34:51.898Z,2.58
2023-03-19T08:37:22.062Z,2.47
2023-03-19T08:39:54.027Z,2.42
2023-03-19T08:42:24.626Z,2.40
2023-03-19T08:44:57.453Z,2.47
2023-03-19T08:47:31.334Z,2.90
2023-03-19T08:50:01.772Z,2.53
2023-03-19T08:52:31.876Z,2.72
2023-03-19T08:55:02.197Z,3.08
2023-03-19T08:57:33.532Z,2.80
2023-03-19T09:00:07.959Z,2.50
2023-03-19T09:02:38.334Z,2.58
2023-03-19T09:05:09.355Z,2.97
2023-03-19T09:07:39.479Z,2.70
2023-03-19T09:10:10.966Z,3.13
2023-03-19T09:12:41.079Z,3.80
2023-03-19T09:15:13.936Z,3.63
2023-03-19T09:17:44.046Z,3.35
2023-03-19T09:20:14.800Z,3.50
2023-03-19T09:22:44.975Z,3.17
2023-03-19T09:25:15.465Z,3.20
2023-03-19T09:27:45.495Z,3.67
2023-03-19T09:30:18.906Z,6.05
2023-03-19T09:32:49.183Z,5.35
2023-03-19T09:35:19.956Z,6.45
2023-03-19T09:37:52.094Z,6.80
2023-03-19T09:40:27.953Z,8.13
2023-03-19T09:43:09.402Z,8.32
2023-03-19T09:45:42.339Z,9.45
2023-03-19T09:48:22.164Z,9.43
2023-03-19T09:50:53.596Z,9.63
2023-03-19T09:53:33.826Z,10.73
2023-03-19T09:56:08.400Z,10.70
2023-03-19T09:58:39.666Z,11.45
2023-03-19T10:01:26.203Z,12.25
2023-03-19T10:04:21.938Z,12.85
2023-03-19T10:06:52.367Z,11.02
2023-03-19T10:09:46.892Z,12.38
2023-03-19T10:12:29.536Z,13.30
2023-03-19T10:15:11.537Z,12.80
2023-03-19T10:17:50.663Z,12.55
2023-03-19T10:20:28.297Z,13.00
2023-03-19T10:23:04.287Z,14.63
2023-03-19T10:25:38.592Z,13.30
2023-03-19T10:28:18.964Z,13.43
2023-03-19T10:31:00.024Z,13.35
2023-03-19T10:33:46.673Z,12.95
2023-03-19T10:36:17.180Z,13.40
2023-03-19T10:38:47.931Z,13.63
2023-03-19T10:41:37.451Z,15.02
2023-03-19T10:44:13.357Z,14.10
2023-03-19T10:46:43.757Z,13.23
2023-03-19T10:49:19.290Z,14.05
2023-03-19T10:51:49.706Z,13.90
2023-03-19T10:54:25.117Z,13.88
2023-03-19T10:56:58.868Z,15.05
2023-03-19T10:59:34.330Z,14.43
2023-03-19T11:02:18.419Z,13.13
2023-03-19T11:07:23.902Z,12.93
2023-03-19T11:09:54.682Z,12.50
2023-03-19T11:12:27.543Z,12.65
2023-03-19T11:15:00.936Z,12.52
2023-03-19T11:17:39.879Z,11.85
2023-03-19T11:20:26.574Z,13.32
2023-03-19T11:23:02.893Z,13.82
2023-03-19T11:25:37.233Z,13.27
2023-03-19T11:28:11.385Z,13.23
2023-03-19T11:30:44.905Z,16.25
2023-03-19T11:33:38.353Z,13.80
2023-03-19T11:36:16.781Z,14.02
2023-03-19T11:38:59.103Z,14.48
2023-03-19T11:41:41.067Z,14.52
2023-03-19T11:44:19.427Z,14.55
2023-03-19T11:46:56.106Z,15.52
2023-03-19T11:50:00.486Z,15.95
2023-03-19T11:52:42.535Z,16.00
2023-03-19T11:55:21.478Z,15.77
2023-03-19T11:58:33.466Z,15.30
2023-03-19T12:01:09.479Z,15.57
2023-03-19T12:04:23.426Z,15.32
2023-03-19T12:07:01.456Z,15.18
2023-03-19T12:09:42.351Z,14.88
2023-03-19T12:12:26.654Z,14.40
2023-03-19T12:15:08.760Z,14.00
2023-03-19T12:18:01.818Z,12.18
2023-03-19T12:20:38.884Z,11.52
2023-03-19T12:23:26.074Z,7.90
2023-03-19T12:26:08.956Z,6.05
2023-03-19T12:28:44.113Z,7.07
2023-03-19T12:31:31.160Z,7.18
2023-03-19T12:34:15.276Z,6.28
2023-03-19T12:36:53.136Z,6.43
2023-03-19T12:39:29.083Z,6.35
2023-03-19T12:42:03.659Z,7.75
2023-03-19T12:44:39.197Z,7.00
2023-03-19T12:47:13.571Z,7.30
2023-03-19T12:49:52.235Z,6.25
2023-03-19T12:52:25.386Z,6.82
2023-03-19T12:55:03.225Z,6.60
2023-03-19T12:57:43.404Z,7.60
2023-03-19T13:00:19.082Z,6.88
2023-03-19T13:02:55.005Z,7.70
2023-03-19T13:05:34.596Z,7.18
2023-03-19T13:08:12.129Z,7.53
2023-03-19T13:10:42.927Z,6.65
2023-03-19T13:13:28.246Z,6.65
2023-03-19T13:16:02.460Z,5.88
2023-03-19T13:18:40.128Z,6.55
2023-03-19T13:21:24.796Z,6.47
2023-03-19T13:24:05.471Z,5.80
2023-03-19T13:26:37.660Z,6.30
2023-03-19T13:29:21.602Z,5.90
2023-03-19T13:31:52.352Z,5.80
2023-03-19T13:34:29.634Z,6.03
2023-03-19T13:37:05.117Z,6.00
2023-03-19T13:39:37.268Z,8.10
2023-03-19T13:42:14.101Z,8.85
2023-03-19T13:44:52.637Z,8.20
2023-03-19T13:47:42.474Z,4.75
2023-03-19T13:50:31.637Z,4.07
2023-03-19T13:53:40.231Z,4.30
2023-03-19T13:56:28.487Z,3.15
2023-03-19T13:59:28.014Z,3.75
2023-03-19T14:02:01.475Z,4.00
2023-03-19T14:04:33.669Z,3.55
2023-03-19T14:07:15.190Z,3.60
2023-03-19T14:09:48.746Z,3.33
2023-03-19T14:12:35.586Z,3.45
2023-03-19T14:15:18.086Z,3.67
2023-03-19T14:18:00.543Z,3.35
2023-03-19T14:20:40.589Z,2.97
2023-03-19T14:23:36.240Z,2.50
2023-03-19T14:26:20.448Z,2.60
2023-03-19T14:29:00.544Z,2.78
2023-03-19T14:31:38.734Z,2.47
2023-03-19T14:34:22.230Z,2.30
2023-03-19T14:36:58.877Z,2.90
2023-03-19T14:39:31.793Z,2.45
2023-03-19T14:42:10.772Z,1.92
2023-03-19T14:45:12.100Z,2.50
2023-03-19T14:47:58.586Z,2.42
2023-03-19T14:50:55.651Z,1.95
2023-03-19T14:53:32.365Z,2.05
2023-03-19T14:56:12.582Z,2.50
2023-03-19T14:58:51.974Z,2.22
2023-03-19T15:01:22.882Z,2.45
2023-03-19T15:03:58.132Z,2.47
2023-03-19T15:06:36.114Z,2.40
2023-03-19T15:09:07.096Z,2.25
2023-03-19T15:12:00.788Z,2.22
2023-03-19T15:14:53.576Z,2.20
2023-03-19T15:17:27.836Z,2.58
2023-03-19T15:20:02.045Z,2.45
2023-03-19T15:22:36.845Z,2.08
2023-03-19T15:25:11.135Z,2.75
2023-03-19T15:27:41.657Z,1.83
2023-03-19T15:30:28.809Z,2.00
2023-03-19T15:33:12.144Z,1.83
2023-03-19T15:35:47.993Z,2.10
2023-03-19T15:38:21.850Z,2.45
2023-03-19T15:40:52.406Z,2.10
2023-03-19T15:43:23.544Z,1.88
2023-03-19T15:45:56.767Z,2.17
2023-03-19T15:48:31.437Z,1.70
2023-03-19T15:51:03.744Z,1.70
2023-03-19T15:53:38.442Z,1.60
2023-03-19T15:56:10.105Z,2.22
2023-03-19T15:58:43.678Z,1.85
2023-03-19T16:01:15.250Z,3.03
2023-03-19T16:03:47.543Z,2.85
2023-03-19T16:06:26.953Z,2.65
2023-03-19T16:09:16.299Z,3.25
2023-03-19T16:11:49.037Z,3.08
2023-03-19T16:14:26.714Z,3.05
2023-03-19T16:17:03.913Z,3.30
2023-03-19T16:19:40.243Z,4.07
2023-03-19T16:22:17.880Z,3.65
2023-03-19T16:27:24.379Z,3.60
2023-03-19T16:30:00.349Z,3.70
2023-03-19T16:32:31.898Z,3.80
2023-03-19T16:35:08.235Z,3.25
2023-03-19T16:37:44.120Z,4.28
2023-03-19T16:40:42.784Z,4.45
2023-03-19T16:43:20.010Z,3.25
2023-03-19T16:45:54.524Z,3.80
2023-03-19T16:48:24.903Z,3.13
2023-03-19T16:50:55.222Z,2.70
2023-03-19T16:53:28.060Z,3.17
2023-03-19T16:56:03.156Z,2.78
2023-03-19T16:58:37.257Z,2.40
2023-03-19T17:01:16.164Z,2.10
2023-03-19T17:03:47.107Z,2.10
2023-03-19T17:06:27.420Z,2.20
2023-03-19T17:08:57.684Z,1.60
2023-03-19T17:11:33.952Z,2.30
2023-03-19T17:14:06.454Z,1.52
2023-03-19T17:16:36.832Z,4.15
2023-03-19T17:19:13.035Z,4.38
2023-03-19T17:21:43.373Z,8.45
2023-03-19T17:24:24.340Z,4.03
2023-03-19T17:26:58.156Z,2.40
2023-03-19T17:29:28.492Z,3.13
2023-03-19T17:32:01.651Z,2.13
2023-03-19T17:34:33.679Z,2.70
2023-03-19T17:37:05.934Z,3.70
2023-03-19T17:39:36.192Z,3.67
2023-03-19T17:42:13.558Z,3.20
2023-03-19T17:44:46.843Z,3.65
2023-03-19T17:47:17.158Z,4.32
2023-03-19T17:49:48.086Z,4.30
2023-03-19T17:52:19.515Z,4.60
2023-03-19T17:54:50.122Z,5.10
2023-03-19T17:57:22.936Z,5.15
2023-03-19T17:59:53.182Z,4.18
2023-03-19T18:02:39.956Z,3.35
2023-03-19T18:05:18.012Z,4.05
2023-03-19T18:07:48.758Z,5.03
2023-03-19T18:10:21.258Z,5.07
2023-03-19T18:12:54.905Z,5.38
2023-03-19T18:15:26.228Z,5.88
2023-03-19T18:17:59.237Z,5.30
2023-03-19T18:20:32.534Z,5.55
2023-03-19T18:23:02.961Z,5.97
2023-03-19T18:25:35.802Z,5.20
2023-03-19T18:28:09.243Z,5.20
2023-03-19T18:30:41.654Z,5.40
2023-03-19T18:33:18.575Z,5.10
2023-03-19T18:35:49.382Z,6.35
2023-03-19T18:38:20.231Z,5.70
2023-03-19T18:40:51.316Z,5.88
2023-03-19T18:43:24.519Z,5.85
2023-03-19T18:45:56.110Z,5.43
2023-03-19T18:48:31.407Z,5.47
2023-03-19T18:51:01.750Z,6.30
2023-03-19T18:53:31.982Z,5.97
2023-03-19T18:56:04.103Z,4.88
2023-03-19T18:58:37.808Z,5.38
2023-03-19T19:01:08.300Z,5.32
2023-03-19T19:03:39.457Z,4.80
2023-03-19T19:08:40.755Z,5.57
2023-03-19T19:11:11.554Z,5.93
2023-03-19T19:13:55.427Z,5.20
2023-03-19T19:18:59.656Z,5.38
2023-03-19T19:21:30.038Z,6.40
2023-03-19T19:24:00.161Z,6.50
2023-03-19T19:26:32.701Z,5.82
2023-03-19T19:29:06.689Z,5.47
2023-03-19T19:31:38.471Z,6.47
2023-03-19T19:34:08.810Z,5.95
2023-03-19T19:36:39.022Z,5.47
2023-03-19T19:39:09.556Z,5.43
2023-03-19T19:41:40.703Z,5.75
2023-03-19T19:44:19.947Z,4.70
2023-03-19T19:46:53.429Z,5.45
2023-03-19T19:49:25.264Z,5.28
2023-03-19T19:51:56.305Z,5.05
2023-03-19T19:54:26.777Z,6.47
2023-03-19T19:56:58.026Z,4.75
2023-03-19T20:02:00.675Z,4.15
2023-03-19T20:04:30.891Z,4.53
2023-03-19T20:07:02.708Z,3.75
2023-03-19T20:09:33.162Z,4.28
2023-03-19T20:12:04.067Z,3.67
2023-03-19T20:14:37.042Z,6.05
2023-03-19T20:17:10.407Z,4.55
2023-03-19T20:19:40.753Z,5.10
2023-03-19T20:22:11.046Z,4.03
2023-03-19T20:24:42.194Z,3.30
2023-03-19T20:29:53.846Z,3.70
2023-03-19T20:32:34.309Z,2.47
2023-03-19T20:35:05.100Z,3.35
2023-03-19T20:37:35.500Z,3.38
2023-03-19T20:40:05.935Z,2.88
2023-03-19T20:42:37.244Z,4.22
2023-03-19T20:45:17.030Z,3.38
2023-03-19T20:47:47.449Z,3.58
2023-03-19T20:50:23.849Z,4.13
2023-03-19T20:52:55.641Z,3.15
2023-03-19T20:55:29.374Z,2.90
2023-03-19T20:57:59.698Z,3.05
2023-03-19T21:00:34.986Z,2.33
2023-03-19T21:03:05.894Z,2.42
2023-03-19T21:05:39.750Z,2.33
2023-03-19T21:08:17.262Z,2.20
2023-03-19T21:10:49.924Z,2.42
2023-03-19T21:13:22.881Z,1.60
2023-03-19T21:15:59.863Z,1.83
2023-03-19T21:18:30.186Z,1.73
2023-03-19T21:21:00.987Z,2.30
2023-03-19T21:23:35.125Z,2.15
2023-03-19T21:26:12.102Z,2.45
2023-03-19T21:28:43.658Z,2.20
2023-03-19T21:31:20.902Z,2.67
2023-03-19T21:33:53.005Z,2.50
2023-03-19T21:36:23.162Z,2.38
2023-03-19T21:38:53.779Z,2.70
2023-03-19T21:41:26.616Z,2.22
2023-03-19T21:43:59.281Z,2.15
2023-03-19T21:46:33.906Z,2.65
2023-03-19T21:49:04.408Z,2.40
2023-03-19T21:51:34.818Z,3.72
2023-03-19T21:54:06.238Z,2.55
2023-03-19T21:56:40.880Z,2.42
2023-03-19T21:59:17.559Z,2.25
2023-03-19T22:01:51.148Z,2.63
2023-03-19T22:04:21.990Z,2.10
2023-03-19T22:06:52.110Z,2.53
2023-03-19T22:09:22.503Z,2.53
2023-03-19T22:11:52.669Z,2.25
2023-03-19T22:14:28.205Z,2.70
2023-03-19T22:17:01.936Z,2.50
2023-03-19T22:19:32.167Z,2.67
2023-03-19T22:22:02.235Z,2.42
2023-03-19T22:24:32.521Z,2.65
2023-03-19T22:27:02.672Z,2.65
2023-03-19T22:29:35.868Z,2.55
2023-03-19T22:32:16.691Z,3.28
2023-03-19T22:34:47.391Z,2.55
2023-03-19T22:37:28.374Z,2.92
2023-03-19T22:39:58.939Z,2.47
2023-03-19T22:42:29.758Z,2.60
2023-03-19T22:45:00.175Z,3.20
2023-03-19T22:47:35.390Z,3.25
2023-03-19T22:50:05.771Z,3.10
2023-03-19T22:52:36.445Z,3.50
2023-03-19T22:55:06.880Z,3.65
2023-03-19T22:57:37.127Z,3.50
2023-03-19T23:00:12.649Z,4.28
2023-03-19T23:02:45.702Z,3.65
2023-03-19T23:05:32.456Z,4.03
2023-03-19T23:08:05.970Z,4.90
2023-03-19T23:10:37.057Z,4.25
2023-03-19T23:13:08.791Z,4.43
2023-03-19T23:15:40.013Z,4.25
2023-03-19T23:20:48.348Z,5.22
2023-03-19T23:23:19.504Z,5.03
2023-03-19T23:25:50.163Z,4.13
2023-03-19T23:28:22.931Z,4.78
2023-03-19T23:30:54.549Z,4.40
2023-03-19T23:33:27.965Z,3.95
2023-03-19T23:35:59.570Z,4.20
2023-03-19T23:38:29.934Z,4.30
2023-03-19T23:41:01.217Z,4.18
2023-03-19T23:43:32.187Z,4.95
2023-03-19T23:46:02.616Z,4.63
2023-03-19T23:48:38.668Z,5.90
2023-03-19T23:51:10.005Z,5.38
2023-03-19T23:56:17.651Z,4.32
2023-03-19T23:58:49.429Z,4.53
